sensor_id;sensor_type;location;lat;lon;timestamp;P1;durP1;ratioP1;P2;durP2;ratioP2
71902;SDS011;59778;50.310;18.780;2023-04-08T00:01:38;44.07;;;19.93;;
71902;SDS011;59778;50.310;18.780;2023-04-08T00:16:59;49.67;;;19.97;;
71902;SDS011;59778;50.310;18.780;2023-04-08T00:32:21;48.95;;;19.60;;
71902;SDS011;59778;50.310;18.780;2023-04-08T00:47:42;45.15;;;17.05;;
71902;SDS011;59778;50.310;18.780;2023-04-08T01:03:10;46.53;;;17.63;;
71902;SDS011;59778;50.310;18.780;2023-04-08T01:18:37;37.43;;;16.17;;
71902;SDS011;59778;50.310;18.780;2023-04-08T01:34:01;48.13;;;18.70;;
71902;SDS011;59778;50.310;18.780;2023-04-08T01:49:26;19.87;;;8.77;;
71902;SDS011;59778;50.310;18.780;2023-04-08T02:04:49;25.30;;;12.10;;
71902;SDS011;59778;50.310;18.780;2023-04-08T02:20:11;43.10;;;17.20;;
71902;SDS011;59778;50.310;18.780;2023-04-08T02:35:51;34.10;;;14.90;;
71902;SDS011;59778;50.310;18.780;2023-04-08T02:51:14;40.90;;;17.70;;
71902;SDS011;59778;50.310;18.780;2023-04-08T03:06:35;33.50;;;14.40;;
71902;SDS011;59778;50.310;18.780;2023-04-08T03:21:57;36.37;;;16.20;;
71902;SDS011;59778;50.310;18.780;2023-04-08T03:37:18;36.45;;;17.55;;
71902;SDS011;59778;50.310;18.780;2023-04-08T03:52:39;36.45;;;16.90;;
71902;SDS011;59778;50.310;18.780;2023-04-08T04:08:01;30.95;;;14.40;;
71902;SDS011;59778;50.310;18.780;2023-04-08T04:23:22;28.55;;;12.60;;
71902;SDS011;59778;50.310;18.780;2023-04-08T04:38:45;34.50;;;15.75;;
71902;SDS011;59778;50.310;18.780;2023-04-08T04:54:06;31.20;;;14.80;;
71902;SDS011;59778;50.310;18.780;2023-04-08T05:09:29;27.00;;;12.65;;
71902;SDS011;59778;50.310;18.780;2023-04-08T05:24:51;30.20;;;13.80;;
71902;SDS011;59778;50.310;18.780;2023-04-08T05:40:13;29.27;;;12.83;;
71902;SDS011;59778;50.310;18.780;2023-04-08T05:55:34;26.95;;;11.60;;
71902;SDS011;59778;50.310;18.780;2023-04-08T06:11:01;22.40;;;11.25;;
71902;SDS011;59778;50.310;18.780;2023-04-08T06:26:25;21.07;;;9.67;;
71902;SDS011;59778;50.310;18.780;2023-04-08T06:41:47;23.60;;;10.93;;
71902;SDS011;59778;50.310;18.780;2023-04-08T06:57:12;17.75;;;9.15;;
71902;SDS011;59778;50.310;18.780;2023-04-08T07:12:33;18.25;;;8.20;;
71902;SDS011;59778;50.310;18.780;2023-04-08T07:27:54;19.43;;;9.07;;
71902;SDS011;59778;50.310;18.780;2023-04-08T07:43:16;18.23;;;8.27;;
71902;SDS011;59778;50.310;18.780;2023-04-08T07:58:38;19.50;;;9.40;;
71902;SDS011;59778;50.310;18.780;2023-04-08T08:14:00;17.53;;;8.67;;
71902;SDS011;59778;50.310;18.780;2023-04-08T08:29:21;16.97;;;7.80;;
71902;SDS011;59778;50.310;18.780;2023-04-08T08:44:43;22.93;;;10.47;;
71902;SDS011;59778;50.310;18.780;2023-04-08T09:00:04;21.50;;;10.73;;
71902;SDS011;59778;50.310;18.780;2023-04-08T09:15:26;19.87;;;9.83;;
71902;SDS011;59778;50.310;18.780;2023-04-08T09:30:47;23.70;;;11.60;;
71902;SDS011;59778;50.310;18.780;2023-04-08T09:46:10;20.67;;;10.13;;
71902;SDS011;59778;50.310;18.780;2023-04-08T10:01:39;19.20;;;9.20;;
71902;SDS011;59778;50.310;18.780;2023-04-08T10:17:24;15.07;;;7.20;;
71902;SDS011;59778;50.310;18.780;2023-04-08T10:32:47;17.07;;;7.90;;
71902;SDS011;59778;50.310;18.780;2023-04-08T10:48:17;18.23;;;10.10;;
71902;SDS011;59778;50.310;18.780;2023-04-08T11:03:42;15.33;;;8.20;;
71902;SDS011;59778;50.310;18.780;2023-04-08T11:19:04;19.83;;;9.20;;
71902;SDS011;59778;50.310;18.780;2023-04-08T11:34:26;13.70;;;7.17;;
71902;SDS011;59778;50.310;18.780;2023-04-08T11:49:48;22.90;;;10.60;;
71902;SDS011;59778;50.310;18.780;2023-04-08T12:05:10;22.63;;;11.63;;
71902;SDS011;59778;50.310;18.780;2023-04-08T12:20:40;18.97;;;10.83;;
71902;SDS011;59778;50.310;18.780;2023-04-08T12:36:01;22.53;;;11.90;;
71902;SDS011;59778;50.310;18.780;2023-04-08T12:51:23;40.57;;;17.20;;
71902;SDS011;59778;50.310;18.780;2023-04-08T13:06:46;29.23;;;14.13;;
71902;SDS011;59778;50.310;18.780;2023-04-08T13:22:07;59.70;;;24.07;;
71902;SDS011;59778;50.310;18.780;2023-04-08T13:37:29;45.87;;;20.87;;
71902;SDS011;59778;50.310;18.780;2023-04-08T13:52:51;36.57;;;16.73;;
71902;SDS011;59778;50.310;18.780;2023-04-08T14:08:13;27.73;;;15.53;;
71902;SDS011;59778;50.310;18.780;2023-04-08T14:23:35;48.03;;;22.53;;
71902;SDS011;59778;50.310;18.780;2023-04-08T14:38:57;43.97;;;21.53;;
71902;SDS011;59778;50.310;18.780;2023-04-08T14:54:22;37.77;;;16.53;;
71902;SDS011;59778;50.310;18.780;2023-04-08T15:09:44;35.50;;;16.20;;
71902;SDS011;59778;50.310;18.780;2023-04-08T15:25:32;40.87;;;18.73;;
71902;SDS011;59778;50.310;18.780;2023-04-08T15:40:57;54.47;;;24.27;;
71902;SDS011;59778;50.310;18.780;2023-04-08T15:56:24;50.10;;;22.40;;
71902;SDS011;59778;50.310;18.780;2023-04-08T16:11:47;52.80;;;22.60;;
71902;SDS011;59778;50.310;18.780;2023-04-08T16:27:08;53.90;;;23.40;;
71902;SDS011;59778;50.310;18.780;2023-04-08T16:42:30;61.20;;;28.90;;
71902;SDS011;59778;50.310;18.780;2023-04-08T16:57:52;126.17;;;55.67;;
71902;SDS011;59778;50.310;18.780;2023-04-08T17:13:15;62.27;;;28.77;;
71902;SDS011;59778;50.310;18.780;2023-04-08T17:28:37;55.97;;;25.13;;
71902;SDS011;59778;50.310;18.780;2023-04-08T17:43:59;52.53;;;23.93;;
71902;SDS011;59778;50.310;18.780;2023-04-08T17:59:30;73.83;;;32.37;;
71902;SDS011;59778;50.310;18.780;2023-04-08T18:14:51;71.90;;;29.83;;
71902;SDS011;59778;50.310;18.780;2023-04-08T18:30:25;62.23;;;26.30;;
71902;SDS011;59778;50.310;18.780;2023-04-08T18:45:46;70.43;;;29.83;;
71902;SDS011;59778;50.310;18.780;2023-04-08T19:01:08;69.40;;;28.93;;
71902;SDS011;59778;50.310;18.780;2023-04-08T19:16:30;69.13;;;28.83;;
71902;SDS011;59778;50.310;18.780;2023-04-08T19:31:51;68.93;;;28.63;;
71902;SDS011;59778;50.310;18.780;2023-04-08T19:47:13;47.40;;;20.53;;
71902;SDS011;59778;50.310;18.780;2023-04-08T20:02:37;52.53;;;21.53;;
71902;SDS011;59778;50.310;18.780;2023-04-08T20:17:58;56.37;;;22.87;;
71902;SDS011;59778;50.310;18.780;2023-04-08T20:33:19;45.93;;;21.27;;
71902;SDS011;59778;50.310;18.780;2023-04-08T20:48:41;59.30;;;22.77;;
71902;SDS011;59778;50.310;18.780;2023-04-08T21:04:02;101.13;;;43.70;;
71902;SDS011;59778;50.310;18.780;2023-04-08T21:19:25;68.97;;;27.37;;
71902;SDS011;59778;50.310;18.780;2023-04-08T21:34:46;90.83;;;34.17;;
71902;SDS011;59778;50.310;18.780;2023-04-08T21:50:08;78.97;;;30.60;;
71902;SDS011;59778;50.310;18.780;2023-04-08T22:05:30;90.73;;;31.57;;
71902;SDS011;59778;50.310;18.780;2023-04-08T22:20:52;70.47;;;27.40;;
71902;SDS011;59778;50.310;18.780;2023-04-08T22:36:14;76.23;;;30.20;;
71902;SDS011;59778;50.310;18.780;2023-04-08T22:51:35;53.70;;;24.20;;
71902;SDS011;59778;50.310;18.780;2023-04-08T23:06:56;51.93;;;21.23;;
71902;SDS011;59778;50.310;18.780;2023-04-08T23:22:18;48.87;;;22.83;;
71902;SDS011;59778;50.310;18.780;2023-04-08T23:37:39;53.37;;;22.40;;
71902;SDS011;59778;50.310;18.780;2023-04-08T23:53:00;58.33;;;24.90;;
